createdAt,value
2017-11-07T00:00:31.324Z,98.58
2017-11-07T00:01:31.314Z,98.68
2017-11-07T00:02:31.296Z,98.58
2017-11-07T00:03:31.283Z,98.68
2017-11-07T00:04:30.946Z,98.58
2017-11-07T00:05:31.253Z,98.58
2017-11-07T00:06:31.237Z,98.58
2017-11-07T00:07:31.233Z,98.49
2017-11-07T00:08:31.227Z,98.58
2017-11-07T00:09:31.196Z,98.63
2017-11-07T00:10:31.193Z,98.68
2017-11-07T00:11:30.847Z,98.68
2017-11-07T00:12:31.166Z,98.39
2017-11-07T00:13:31.142Z,98.39
2017-11-07T00:14:31.130Z,98.01
2017-11-07T00:15:31.130Z,98.2
2017-11-07T00:16:31.098Z,98.3
2017-11-07T00:17:31.090Z,98.01
2017-11-07T00:18:31.078Z,98.01
2017-11-07T00:19:31.056Z,98.58
2017-11-07T00:20:31.046Z,98.01
2017-11-07T00:21:31.050Z,98.3
2017-11-07T00:22:31.028Z,98.58
2017-11-07T00:23:31.004Z,98.58
2017-11-07T00:24:30.672Z,98.63
2017-11-07T00:25:30.975Z,98.35
2017-11-07T00:26:30.975Z,98.35
2017-11-07T00:27:30.952Z,98.35
2017-11-07T00:28:30.933Z,98.44
2017-11-07T00:29:30.598Z,98.44
2017-11-07T00:30:30.907Z,98.35
2017-11-07T00:31:30.890Z,98.35
2017-11-07T00:32:30.887Z,98.63
2017-11-07T00:33:30.543Z,98.44
2017-11-07T00:34:30.866Z,98.82
2017-11-07T00:35:30.836Z,98.44
2017-11-07T00:36:30.836Z,98.35
2017-11-07T00:37:30.823Z,98.82
2017-11-07T00:38:30.794Z,98.82
2017-11-07T00:39:30.785Z,98.82
2017-11-07T00:40:30.762Z,98.44
2017-11-07T00:41:30.751Z,98.44
2017-11-07T00:42:30.735Z,98.82
2017-11-07T00:43:30.405Z,98.82
2017-11-07T00:44:30.393Z,98.54
2017-11-07T00:45:30.700Z,98.82
2017-11-07T00:46:30.686Z,98.54
2017-11-07T00:47:30.667Z,98.82
2017-11-07T00:48:30.660Z,98.44
2017-11-07T00:49:30.640Z,98.91
2017-11-07T00:50:30.628Z,98.63
2017-11-07T00:51:30.611Z,98.91
2017-11-07T00:52:30.600Z,98.63
2017-11-07T00:53:30.607Z,98.63
2017-11-07T00:54:30.570Z,98.72
2017-11-07T00:55:30.561Z,98.63
2017-11-07T00:56:30.546Z,98.68
2017-11-07T00:57:30.535Z,98.77
2017-11-07T00:58:30.516Z,98.77
2017-11-07T00:59:30.502Z,98.77
2017-11-07T01:00:30.493Z,98.86
2017-11-07T01:01:30.474Z,98.68
2017-11-07T01:02:30.462Z,98.77
2017-11-07T01:03:30.447Z,98.49
2017-11-07T01:04:30.110Z,98.58
2017-11-07T01:05:30.421Z,98.49
2017-11-07T01:06:30.404Z,98.49
2017-11-07T01:07:30.391Z,98.58
2017-11-07T01:08:30.376Z,98.58
2017-11-07T01:09:30.368Z,98.2
2017-11-07T01:10:30.347Z,98.2
2017-11-07T01:11:30.346Z,98.58
2017-11-07T01:12:30.325Z,98.86
2017-11-07T01:13:30.309Z,98.3
2017-11-07T01:14:30.299Z,98.54
2017-11-07T01:15:30.280Z,98.54
2017-11-07T01:16:29.943Z,98.49
2017-11-07T01:17:30.258Z,98.77
2017-11-07T01:18:30.237Z,98.44
2017-11-07T01:19:30.229Z,98.25
2017-11-07T01:20:30.215Z,98.44
2017-11-07T01:21:30.198Z,98.35
2017-11-07T01:22:30.185Z,98.06
2017-11-07T01:23:30.175Z,98.25
2017-11-07T01:24:30.159Z,98.35
2017-11-07T01:25:30.139Z,98.25
2017-11-07T01:26:30.134Z,98.35
2017-11-07T01:27:29.791Z,98.63
2017-11-07T01:28:30.097Z,98.54
2017-11-07T01:29:30.085Z,98.35
2017-11-07T01:30:30.070Z,98.44
2017-11-07T01:31:30.057Z,98.35
2017-11-07T01:32:29.719Z,98.25
2017-11-07T01:33:30.049Z,98.35
2017-11-07T01:34:30.019Z,98.35
2017-11-07T01:35:30.007Z,98.44
2017-11-07T01:36:29.988Z,98.63
2017-11-07T01:37:29.984Z,98.54
2017-11-07T01:38:29.959Z,98.63
2017-11-07T01:39:29.948Z,98.63
2017-11-07T01:40:29.942Z,97.97
2017-11-07T01:41:29.920Z,98.16
2017-11-07T01:42:29.582Z,97.87
2017-11-07T01:43:29.894Z,97.87
2017-11-07T01:44:29.880Z,97.83
2017-11-07T01:45:29.870Z,97.92
2017-11-07T01:46:29.854Z,97.92
2017-11-07T01:47:29.515Z,97.64
2017-11-07T01:48:29.830Z,97.64
2017-11-07T01:49:29.813Z,97.54
2017-11-07T01:50:29.477Z,97.64
2017-11-07T01:51:29.785Z,97.64
2017-11-07T01:52:29.773Z,97.83
2017-11-07T01:53:29.755Z,97.64
2017-11-07T01:54:29.742Z,97.64
2017-11-07T01:55:29.734Z,97.64
2017-11-07T01:56:29.720Z,97.83
2017-11-07T01:57:29.704Z,97.64
2017-11-07T01:58:29.694Z,97.73
2017-11-07T01:59:29.682Z,97.64
2017-11-07T02:00:29.339Z,97.83
2017-11-07T02:01:29.650Z,97.73
2017-11-07T02:02:29.637Z,97.73
2017-11-07T02:03:29.632Z,97.73
2017-11-07T02:04:29.613Z,97.73
2017-11-07T02:05:29.598Z,97.83
2017-11-07T02:06:29.588Z,97.54
2017-11-07T02:07:29.568Z,97.83
2017-11-07T02:08:29.558Z,97.83
2017-11-07T02:09:29.546Z,97.73
2017-11-07T02:10:29.530Z,97.54
2017-11-07T02:11:29.518Z,97.73
2017-11-07T02:12:29.503Z,97.73
2017-11-07T02:13:29.492Z,97.64
2017-11-07T02:14:29.477Z,97.83
2017-11-07T02:15:29.137Z,97.73
2017-11-07T02:16:29.450Z,97.83
2017-11-07T02:17:29.449Z,97.83
2017-11-07T02:18:29.099Z,97.73
2017-11-07T02:19:29.407Z,97.64
2017-11-07T02:20:29.395Z,97.73
2017-11-07T02:21:29.386Z,97.54
2017-11-07T02:22:29.377Z,97.64
2017-11-07T02:23:29.035Z,97.73
2017-11-07T02:24:29.345Z,98.11
2017-11-07T02:25:29.332Z,97.73
2017-11-07T02:26:28.993Z,98.11
2017-11-07T02:27:29.303Z,97.73
2017-11-07T02:28:29.292Z,97.83
2017-11-07T02:29:29.275Z,97.64
2017-11-07T02:30:29.260Z,97.83
2017-11-07T02:31:29.252Z,97.45
2017-11-07T02:32:28.921Z,97.73
2017-11-07T02:33:29.221Z,97.73
2017-11-07T02:34:29.210Z,97.73
2017-11-07T02:35:29.197Z,97.54
2017-11-07T02:36:28.861Z,97.83
2017-11-07T02:37:29.176Z,97.73
2017-11-07T02:38:29.159Z,97.73
2017-11-07T02:39:29.148Z,97.64
2017-11-07T02:40:29.149Z,97.83
2017-11-07T02:41:29.125Z,97.83
2017-11-07T02:42:29.101Z,97.92
2017-11-07T02:43:29.090Z,97.92
2017-11-07T02:44:29.078Z,97.83
2017-11-07T02:45:29.075Z,97.92
2017-11-07T02:46:29.049Z,97.97
2017-11-07T02:47:29.039Z,98.16
2017-11-07T02:48:29.020Z,97.59
2017-11-07T02:49:29.012Z,98.21
2017-11-07T02:50:29.007Z,97.87
2017-11-07T02:51:28.665Z,97.97
2017-11-07T02:52:28.968Z,98.06
2017-11-07T02:53:28.961Z,97.87
2017-11-07T02:54:28.951Z,97.87
2017-11-07T02:55:28.926Z,98.16
2017-11-07T02:56:28.916Z,98.06
2017-11-07T02:57:28.906Z,98.25
2017-11-07T02:58:28.892Z,98.06
2017-11-07T02:59:28.879Z,98.35
2017-11-07T03:00:28.860Z,98.44
2017-11-07T03:01:28.848Z,98.63
2017-11-07T03:02:28.837Z,98.63
2017-11-07T03:03:28.822Z,98.63
2017-11-07T03:04:28.485Z,98.91
2017-11-07T03:05:28.471Z,98.63
2017-11-07T03:06:28.780Z,98.82
2017-11-07T03:07:28.766Z,99.01
2017-11-07T03:08:28.756Z,98.16
2017-11-07T03:09:28.738Z,98.54
2017-11-07T03:10:28.403Z,98.72
2017-11-07T03:11:28.712Z,98.72
2017-11-07T03:12:28.696Z,98.44
2017-11-07T03:13:28.362Z,98.63
2017-11-07T03:14:28.679Z,98.63
2017-11-07T03:15:28.656Z,98.82
2017-11-07T03:16:28.319Z,98.63
2017-11-07T03:17:28.631Z,98.63
2017-11-07T03:18:28.293Z,98.63
2017-11-07T03:19:28.606Z,98.63
2017-11-07T03:20:28.597Z,98.44
2017-11-07T03:21:28.573Z,98.54
2017-11-07T03:22:28.561Z,98.63
2017-11-07T03:23:28.224Z,98.44
2017-11-07T03:24:28.531Z,98.54
2017-11-07T03:25:28.518Z,98.63
2017-11-07T03:26:28.182Z,98.63
2017-11-07T03:27:28.170Z,98.72
2017-11-07T03:28:28.476Z,98.72
2017-11-07T03:29:28.465Z,98.72
2017-11-07T03:30:28.456Z,98.44
2017-11-07T03:31:28.439Z,98.44
2017-11-07T03:32:28.428Z,98.35
2017-11-07T03:33:28.408Z,98.35
2017-11-07T03:34:28.071Z,98.72
2017-11-07T03:35:28.384Z,98.44
2017-11-07T03:36:28.043Z,98.54
2017-11-07T03:37:28.351Z,98.35
2017-11-07T03:38:28.344Z,98.44
2017-11-07T03:39:28.005Z,98.35
2017-11-07T03:40:28.323Z,98.44
2017-11-07T03:41:27.977Z,98.35
2017-11-07T03:42:27.964Z,98.35
2017-11-07T03:43:28.269Z,98.35
2017-11-07T03:44:28.260Z,98.35
2017-11-07T03:45:28.250Z,98.63
2017-11-07T03:46:28.234Z,98.82
2017-11-07T03:47:28.217Z,98.72
2017-11-07T03:48:27.879Z,98.44
2017-11-07T03:49:27.867Z,98.72
2017-11-07T03:50:28.176Z,98.72
2017-11-07T03:51:27.843Z,98.63
2017-11-07T03:52:28.148Z,98.16
2017-11-07T03:53:28.139Z,98.63
2017-11-07T03:54:27.797Z,98.72
2017-11-07T03:55:28.118Z,98.82
2017-11-07T03:56:27.771Z,98.72
2017-11-07T03:57:27.756Z,98.72
2017-11-07T03:58:27.743Z,98.72
2017-11-07T03:59:28.051Z,98.35
2017-11-07T04:00:27.714Z,98.72
2017-11-07T04:01:28.025Z,98.35
2017-11-07T04:02:27.686Z,98.44
2017-11-07T04:03:27.998Z,98.63
2017-11-07T04:04:27.985Z,98.54
2017-11-07T04:05:27.974Z,98.44
2017-11-07T04:06:27.954Z,98.72
2017-11-07T04:07:27.940Z,98.72
2017-11-07T04:08:27.968Z,98.82
2017-11-07T04:09:27.915Z,98.35
2017-11-07T04:10:27.905Z,98.54
2017-11-07T04:11:27.566Z,98.54
2017-11-07T04:12:27.873Z,98.44
2017-11-07T04:13:27.862Z,98.44
2017-11-07T04:14:27.846Z,98.91
2017-11-07T04:15:27.832Z,98.44
2017-11-07T04:16:27.816Z,98.54
2017-11-07T04:17:27.803Z,98.63
2017-11-07T04:18:27.788Z,98.44
2017-11-07T04:19:27.774Z,98.72
2017-11-07T04:20:27.762Z,98.35
2017-11-07T04:21:27.751Z,98.44
2017-11-07T04:22:27.736Z,98.72
2017-11-07T04:23:27.397Z,98.82
2017-11-07T04:24:27.705Z,98.82
2017-11-07T04:25:27.693Z,98.63
2017-11-07T04:26:27.683Z,98.63
2017-11-07T04:27:27.663Z,98.82
2017-11-07T04:28:27.648Z,98.35
2017-11-07T04:29:27.639Z,98.54
2017-11-07T04:30:27.302Z,98.54
2017-11-07T04:31:27.286Z,98.82
2017-11-07T04:32:27.598Z,98.82
2017-11-07T04:33:27.592Z,98.72
2017-11-07T04:34:27.245Z,98.54
2017-11-07T04:35:27.556Z,98.82
2017-11-07T04:36:27.541Z,98.91
2017-11-07T04:37:27.528Z,98.54
2017-11-07T04:38:27.516Z,98.72
2017-11-07T04:39:27.182Z,98.72
2017-11-07T04:40:27.484Z,98.72
2017-11-07T04:41:27.480Z,98.72
2017-11-07T04:42:27.459Z,98.44
2017-11-07T04:43:27.453Z,98.63
2017-11-07T04:44:27.433Z,98.82
2017-11-07T04:45:27.418Z,98.82
2017-11-07T04:46:27.400Z,99.01
2017-11-07T04:47:27.390Z,98.58
2017-11-07T04:48:27.377Z,98.77
2017-11-07T04:49:27.363Z,98.77
2017-11-07T04:50:27.347Z,98.39
2017-11-07T04:51:27.337Z,98.58
2017-11-07T04:52:27.319Z,98.68
2017-11-07T04:53:27.308Z,98.39
2017-11-07T04:54:27.294Z,98.68
2017-11-07T04:55:27.281Z,98.58
2017-11-07T04:56:27.267Z,98.49
2017-11-07T04:57:27.254Z,98.86
2017-11-07T04:58:27.238Z,98.77
2017-11-07T04:59:27.220Z,98.68
2017-11-07T05:00:27.211Z,98.49
2017-11-07T05:01:27.192Z,98.96
2017-11-07T05:02:27.180Z,98.77
2017-11-07T05:03:27.169Z,98.68
2017-11-07T05:04:26.830Z,98.58
2017-11-07T05:05:27.137Z,98.77
2017-11-07T05:06:27.144Z,98.58
2017-11-07T05:07:27.120Z,98.58
2017-11-07T05:08:27.103Z,98.68
2017-11-07T05:09:27.081Z,98.49
2017-11-07T05:10:27.067Z,98.77
2017-11-07T05:11:27.068Z,98.68
2017-11-07T05:12:27.042Z,98.58
2017-11-07T05:13:27.029Z,98.58
2017-11-07T05:14:27.013Z,98.86
2017-11-07T05:15:26.998Z,98.39
2017-11-07T05:16:26.982Z,98.49
2017-11-07T05:17:26.972Z,98.39
2017-11-07T05:18:26.961Z,98.86
2017-11-07T05:19:26.619Z,98.77
2017-11-07T05:20:26.928Z,98.58
2017-11-07T05:21:26.912Z,98.96
2017-11-07T05:22:26.910Z,98.86
2017-11-07T05:23:26.561Z,98.77
2017-11-07T05:24:26.551Z,98.77
2017-11-07T05:25:26.859Z,98.68
2017-11-07T05:26:26.844Z,98.96
2017-11-07T05:27:26.831Z,98.68
2017-11-07T05:28:26.818Z,98.68
2017-11-07T05:29:26.803Z,98.86
2017-11-07T05:30:26.465Z,98.86
2017-11-07T05:31:26.772Z,98.68
2017-11-07T05:32:26.761Z,98.68
2017-11-07T05:33:26.748Z,98.49
2017-11-07T05:34:26.732Z,98.86
2017-11-07T05:35:26.717Z,98.86
2017-11-07T05:36:26.700Z,99.24
2017-11-07T05:37:26.689Z,99.52
2017-11-07T05:38:26.674Z,99.24
2017-11-07T05:39:26.660Z,99.33
2017-11-07T05:40:26.649Z,99.52
2017-11-07T05:41:26.633Z,99.05
2017-11-07T05:42:26.616Z,98.68
2017-11-07T05:43:26.602Z,99.05
2017-11-07T05:44:26.598Z,98.68
2017-11-07T05:45:26.579Z,98.96
2017-11-07T05:46:26.562Z,98.58
2017-11-07T05:47:26.543Z,98.39
2017-11-07T05:48:26.544Z,98.58
2017-11-07T05:49:26.530Z,98.49
2017-11-07T05:50:26.505Z,98.58
2017-11-07T05:51:26.494Z,98.58
2017-11-07T05:52:26.475Z,98.39
2017-11-07T05:53:26.475Z,98.58
2017-11-07T05:54:26.461Z,98.68
2017-11-07T05:55:26.440Z,98.68
2017-11-07T05:56:26.421Z,98.82
2017-11-07T05:57:26.405Z,98.82
2017-11-07T05:58:26.390Z,98.72
2017-11-07T05:59:26.378Z,98.72
2017-11-07T06:00:26.365Z,98.54
2017-11-07T06:01:26.349Z,98.82
2017-11-07T06:02:26.333Z,98.35
2017-11-07T06:03:25.999Z,98.63
2017-11-07T06:04:26.327Z,98.63
2017-11-07T06:05:26.296Z,98.54
2017-11-07T06:06:26.282Z,98.63
2017-11-07T06:07:26.267Z,98.54
2017-11-07T06:08:26.251Z,98.63
2017-11-07T06:09:25.918Z,98.44
2017-11-07T06:10:26.221Z,98.35
2017-11-07T06:11:26.212Z,98.54
2017-11-07T06:12:26.207Z,98.54
2017-11-07T06:13:26.181Z,98.72
2017-11-07T06:14:25.845Z,98.72
2017-11-07T06:15:26.157Z,98.54
2017-11-07T06:16:25.817Z,98.54
2017-11-07T06:17:26.132Z,98.63
2017-11-07T06:18:25.790Z,98.54
2017-11-07T06:19:26.099Z,98.44
2017-11-07T06:20:26.088Z,98.63
2017-11-07T06:21:26.075Z,98.44
2017-11-07T06:22:26.056Z,98.63
2017-11-07T06:23:26.044Z,98.63
2017-11-07T06:24:26.029Z,98.44
2017-11-07T06:25:26.037Z,98.35
2017-11-07T06:26:26.020Z,98.44
2017-11-07T06:27:25.985Z,98.72
2017-11-07T06:28:25.975Z,98.35
2017-11-07T06:29:25.972Z,98.72
2017-11-07T06:30:25.949Z,98.63
2017-11-07T06:31:25.932Z,98.63
2017-11-07T06:32:25.919Z,98.44
2017-11-07T06:33:25.909Z,98.44
2017-11-07T06:34:25.895Z,98.63
2017-11-07T06:35:25.878Z,98.63
2017-11-07T06:36:25.865Z,98.63
2017-11-07T06:37:25.534Z,98.63
2017-11-07T06:38:25.845Z,98.72
2017-11-07T06:39:25.822Z,98.54
2017-11-07T06:40:25.807Z,98.54
2017-11-07T06:41:25.794Z,98.82
2017-11-07T06:42:25.792Z,98.54
2017-11-07T06:43:25.766Z,98.54
2017-11-07T06:44:25.432Z,98.54
2017-11-07T06:45:25.748Z,98.44
2017-11-07T06:46:25.727Z,98.91
2017-11-07T06:47:25.721Z,98.44
2017-11-07T06:48:25.703Z,98.49
2017-11-07T06:49:25.689Z,98.54
2017-11-07T06:50:25.671Z,98.49
2017-11-07T06:51:25.663Z,98.11
2017-11-07T06:52:25.644Z,98.58
2017-11-07T06:53:25.630Z,98.06
2017-11-07T06:54:25.621Z,98.35
2017-11-07T06:55:25.607Z,98.44
2017-11-07T06:56:25.589Z,98.35
2017-11-07T06:57:25.585Z,98.35
2017-11-07T06:58:25.564Z,98.44
2017-11-07T06:59:25.228Z,98.35
2017-11-07T07:00:25.557Z,98.35
2017-11-07T07:01:25.541Z,98.06
2017-11-07T07:02:25.514Z,98.16
2017-11-07T07:03:25.505Z,98.44
2017-11-07T07:04:25.482Z,98.44
2017-11-07T07:05:25.480Z,98.25
2017-11-07T07:06:25.481Z,98.16
2017-11-07T07:07:25.447Z,98.25
2017-11-07T07:08:25.436Z,98.16
2017-11-07T07:09:25.419Z,98.16
2017-11-07T07:10:25.424Z,98.72
2017-11-07T07:11:25.400Z,98.44
2017-11-07T07:12:25.380Z,98.63
2017-11-07T07:13:25.394Z,98.63
2017-11-07T07:14:25.353Z,98.63
2017-11-07T07:15:25.014Z,98.72
2017-11-07T07:16:25.326Z,98.82
2017-11-07T07:17:25.316Z,98.82
2017-11-07T07:18:25.297Z,98.82
2017-11-07T07:19:25.290Z,98.82
2017-11-07T07:20:25.281Z,98.72
2017-11-07T07:21:25.267Z,98.54
2017-11-07T07:22:25.497Z,98.58
2017-11-07T07:23:25.231Z,98.21
2017-11-07T07:24:25.217Z,98.21
2017-11-07T07:25:25.206Z,98.3
2017-11-07T07:26:25.195Z,98.11
2017-11-07T07:27:25.181Z,98.68
2017-11-07T07:28:25.168Z,98.68
2017-11-07T07:29:25.151Z,98.49
2017-11-07T07:30:24.819Z,98.11
2017-11-07T07:31:25.130Z,97.92
2017-11-07T07:32:24.792Z,98.02
2017-11-07T07:33:25.101Z,98.02
2017-11-07T07:34:24.765Z,98.68
2017-11-07T07:35:25.081Z,98.21
2017-11-07T07:36:25.070Z,98.11
2017-11-07T07:37:25.049Z,98.39
2017-11-07T07:38:25.040Z,98.3
2017-11-07T07:39:25.038Z,98.11
2017-11-07T07:40:25.011Z,98.3
2017-11-07T07:41:24.998Z,98.21
2017-11-07T07:42:24.996Z,98.21
2017-11-07T07:43:24.976Z,98.21
2017-11-07T07:44:24.964Z,97.92
2017-11-07T07:45:24.948Z,98.21
2017-11-07T07:46:24.938Z,97.73
2017-11-07T07:47:24.923Z,97.83
2017-11-07T07:48:24.928Z,97.92
2017-11-07T07:49:24.900Z,97.83
2017-11-07T07:50:24.887Z,98.68
2017-11-07T07:51:24.875Z,98.11
2017-11-07T07:52:24.862Z,97.92
2017-11-07T07:53:24.850Z,98.11
2017-11-07T07:54:24.838Z,97.83
2017-11-07T07:55:24.837Z,98.21
2017-11-07T07:56:24.810Z,97.73
2017-11-07T07:57:24.804Z,97.78
2017-11-07T07:58:24.806Z,97.69
2017-11-07T07:59:24.775Z,98.35
2017-11-07T08:00:24.763Z,97.69
2017-11-07T08:01:24.759Z,97.97
2017-11-07T08:02:24.738Z,97.78
2017-11-07T08:03:24.732Z,97.69
2017-11-07T08:04:24.390Z,97.78
2017-11-07T08:05:24.378Z,98.16
2017-11-07T08:06:24.688Z,98.07
2017-11-07T08:07:24.678Z,98.07
2017-11-07T08:08:24.343Z,98.25
2017-11-07T08:09:24.656Z,97.59
2017-11-07T08:10:24.643Z,97.31
2017-11-07T08:11:24.326Z,98.07
2017-11-07T08:12:24.638Z,98.25
2017-11-07T08:13:24.604Z,97.97
2017-11-07T08:14:24.603Z,97.92
2017-11-07T08:15:24.583Z,98.4
2017-11-07T08:16:24.578Z,97.83
2017-11-07T08:17:24.553Z,97.92
2017-11-07T08:18:24.546Z,98.11
2017-11-07T08:19:24.540Z,97.83
2017-11-07T08:20:24.522Z,97.92
2017-11-07T08:21:24.506Z,97.55
2017-11-07T08:22:24.500Z,97.78
2017-11-07T08:23:24.493Z,97.55
2017-11-07T08:24:24.498Z,97.45
2017-11-07T08:25:24.459Z,97.64
2017-11-07T08:26:24.448Z,97.45
2017-11-07T08:27:24.449Z,97.36
2017-11-07T08:28:24.440Z,98.3
2017-11-07T08:29:24.437Z,97.36
2017-11-07T08:30:24.408Z,97.59
2017-11-07T08:31:24.773Z,97.55
2017-11-07T08:32:24.397Z,98.11
2017-11-07T08:33:24.368Z,97.45
2017-11-07T08:34:24.360Z,97.36
2017-11-07T08:35:24.349Z,97.97
2017-11-07T08:36:24.337Z,97.59
2017-11-07T08:37:24.330Z,97.36
2017-11-07T08:38:24.309Z,97.69
2017-11-07T08:39:24.006Z,97.55
2017-11-07T08:40:24.291Z,97.31
2017-11-07T08:41:23.952Z,98.16
2017-11-07T08:42:24.279Z,98.16
2017-11-07T08:43:24.257Z,98.07
2017-11-07T08:44:24.251Z,98.07
2017-11-07T08:45:23.915Z,97.97
2017-11-07T08:46:24.219Z,97.88
2017-11-07T08:47:24.210Z,97.88
2017-11-07T08:48:24.222Z,98.11
2017-11-07T08:49:23.853Z,97.92
2017-11-07T08:50:23.845Z,98.3
2017-11-07T08:51:23.847Z,98.21
2017-11-07T08:52:24.151Z,98.11
2017-11-07T08:53:23.848Z,98.3
2017-11-07T08:54:23.796Z,97.92
2017-11-07T08:55:24.135Z,98.21
2017-11-07T08:56:23.779Z,97.64
2017-11-07T08:57:24.090Z,98.4
2017-11-07T08:58:24.089Z,97.55
2017-11-07T08:59:24.077Z,97.83
2017-11-07T09:00:24.052Z,97.83
2017-11-07T09:01:24.035Z,97.83
2017-11-07T09:02:24.027Z,97.74
2017-11-07T09:03:24.024Z,97.83
2017-11-07T09:04:23.676Z,97.55
2017-11-07T09:05:23.996Z,97.45
2017-11-07T09:06:24.228Z,97.22
2017-11-07T09:07:23.989Z,97.41
2017-11-07T09:08:23.982Z,97.41
2017-11-07T09:09:23.942Z,97.31
2017-11-07T09:10:23.947Z,97.41
2017-11-07T09:11:23.915Z,97.41
2017-11-07T09:12:23.905Z,97.31
2017-11-07T09:13:23.890Z,97.22
2017-11-07T09:14:23.907Z,97.41
2017-11-07T09:15:23.920Z,97.41
2017-11-07T09:16:23.554Z,97.22
2017-11-07T09:17:23.868Z,97.31
2017-11-07T09:18:23.871Z,97.17
2017-11-07T09:19:23.842Z,97.07
2017-11-07T09:20:23.823Z,96.88
2017-11-07T09:21:23.798Z,97.07
2017-11-07T09:22:23.796Z,97.27
2017-11-07T09:23:23.778Z,96.79
2017-11-07T09:24:23.451Z,97.17
2017-11-07T09:25:23.444Z,97.17
2017-11-07T09:26:23.750Z,96.69
2017-11-07T09:27:23.738Z,96.69
2017-11-07T09:28:23.725Z,96.79
2017-11-07T09:29:23.721Z,96.79
2017-11-07T09:30:23.695Z,96.6
2017-11-07T09:31:23.696Z,96.5
2017-11-07T09:32:23.678Z,96.88
2017-11-07T09:33:23.349Z,96.69
2017-11-07T09:34:23.678Z,96.79
2017-11-07T09:35:23.866Z,96.88
2017-11-07T09:36:23.643Z,96.88
2017-11-07T09:37:23.634Z,96.79
2017-11-07T09:38:23.622Z,96.88
2017-11-07T09:39:23.274Z,96.69
2017-11-07T09:40:23.676Z,96.79
2017-11-07T09:41:23.253Z,96.84
2017-11-07T09:42:23.582Z,96.69
2017-11-07T09:43:23.555Z,96.69
2017-11-07T09:44:23.543Z,96.98
2017-11-07T09:45:23.554Z,97.22
2017-11-07T09:46:23.531Z,96.98
2017-11-07T09:47:23.536Z,97.17
2017-11-07T09:48:23.500Z,96.69
2017-11-07T09:49:23.524Z,97.27
2017-11-07T09:50:23.511Z,96.93
2017-11-07T09:51:23.467Z,97.07
2017-11-07T09:52:23.452Z,96.98
2017-11-07T09:53:23.450Z,96.79
2017-11-07T09:54:23.448Z,97.17
2017-11-07T09:55:23.421Z,96.98
2017-11-07T09:56:23.409Z,96.79
2017-11-07T09:57:23.404Z,97.07
2017-11-07T09:58:23.387Z,96.88
2017-11-07T09:59:23.369Z,97.17
2017-11-07T10:00:23.370Z,97.27
2017-11-07T10:01:23.359Z,96.79
2017-11-07T10:02:23.375Z,96.98
2017-11-07T10:03:23.341Z,96.98
2017-11-07T10:04:23.000Z,96.84
2017-11-07T10:05:23.312Z,96.93
2017-11-07T10:06:23.337Z,97.03
2017-11-07T10:07:23.288Z,96.55
2017-11-07T10:08:23.535Z,97.12
2017-11-07T10:09:23.264Z,96.93
2017-11-07T10:10:23.257Z,97.03
2017-11-07T10:11:23.269Z,96.93
2017-11-07T10:12:23.240Z,96.93
2017-11-07T10:13:23.241Z,96.93
2017-11-07T10:14:23.233Z,96.84
2017-11-07T10:15:23.213Z,96.55
2017-11-07T10:16:23.188Z,96.74
2017-11-07T10:17:23.187Z,96.74
2017-11-07T10:18:23.171Z,96.93
2017-11-07T10:19:23.170Z,96.65
2017-11-07T10:20:22.840Z,96.65
2017-11-07T10:21:23.174Z,96.93
2017-11-07T10:22:23.161Z,97.03
2017-11-07T10:23:22.821Z,96.5
2017-11-07T10:24:23.203Z,96.69
2017-11-07T10:25:23.130Z,96.41
2017-11-07T10:26:23.152Z,96.22
2017-11-07T10:27:23.092Z,96.41
2017-11-07T10:28:23.093Z,96.79
2017-11-07T10:29:23.099Z,96.79
2017-11-07T10:30:23.085Z,96.41
2017-11-07T10:31:23.078Z,96.31
2017-11-07T10:32:23.043Z,96.5
2017-11-07T10:33:23.072Z,96.12
2017-11-07T10:34:23.056Z,96.41
2017-11-07T10:35:23.038Z,96.22
2017-11-07T10:36:23.039Z,95.79
2017-11-07T10:37:23.032Z,96.26
2017-11-07T10:38:22.995Z,95.89
2017-11-07T10:39:23.210Z,96.17
2017-11-07T10:40:22.970Z,95.98
2017-11-07T10:41:22.978Z,96.74
2017-11-07T10:42:22.928Z,95.79
2017-11-07T10:43:23.154Z,96.26
2017-11-07T10:44:22.593Z,95.51
2017-11-07T10:45:22.935Z,96.36
2017-11-07T10:46:22.950Z,95.75
2017-11-07T10:47:22.904Z,96.12
2017-11-07T10:48:22.925Z,96.12
2017-11-07T10:49:22.912Z,95.84
2017-11-07T10:50:22.887Z,95.84
2017-11-07T10:51:22.904Z,96.03
2017-11-07T10:52:22.549Z,96.22
2017-11-07T10:53:23.061Z,96.31
2017-11-07T10:54:22.865Z,96.03
2017-11-07T10:55:22.853Z,95.56
2017-11-07T10:56:22.829Z,95.84
2017-11-07T10:57:22.819Z,96.27
2017-11-07T10:58:23.005Z,95.41
2017-11-07T10:59:22.805Z,95.79
2017-11-07T11:00:22.801Z,95.79
2017-11-07T11:01:22.763Z,95.98
2017-11-07T11:02:22.959Z,96.17
2017-11-07T11:03:22.749Z,96.17
2017-11-07T11:04:22.751Z,96.27
2017-11-07T11:05:22.434Z,96.46
2017-11-07T11:06:22.426Z,96.46
2017-11-07T11:07:22.398Z,96.17
2017-11-07T11:08:22.413Z,96.08
2017-11-07T11:09:22.766Z,96.65
2017-11-07T11:10:22.614Z,96.08
2017-11-07T11:11:22.688Z,96.36
2017-11-07T11:12:22.364Z,96.36
2017-11-07T11:13:22.366Z,97.13
2017-11-07T11:14:22.707Z,96.27
2017-11-07T11:15:22.344Z,96.36
2017-11-07T11:16:22.668Z,96.36
2017-11-07T11:17:22.628Z,96.55
2017-11-07T11:18:22.651Z,96.46
2017-11-07T11:19:22.639Z,96.17
2017-11-07T11:20:22.306Z,96.55
2017-11-07T11:21:22.639Z,96.46
2017-11-07T11:22:22.281Z,96.7
2017-11-07T11:23:22.608Z,96.03
2017-11-07T11:24:22.246Z,95.65
2017-11-07T11:25:22.602Z,96.6
2017-11-07T11:26:22.586Z,95.98
2017-11-07T11:27:22.558Z,96.36
2017-11-07T11:28:22.555Z,95.22
2017-11-07T11:29:22.507Z,95.79
2017-11-07T11:30:22.210Z,97.31
2017-11-07T11:31:22.499Z,96.36
2017-11-07T11:32:22.514Z,96.27
2017-11-07T11:33:22.494Z,96.75
2017-11-07T11:34:22.168Z,96.94
2017-11-07T11:35:22.458Z,96.84
2017-11-07T11:36:22.461Z,96.17
2017-11-07T11:37:22.486Z,95.46
2017-11-07T11:38:22.428Z,96.36
2017-11-07T11:39:22.425Z,95.98
2017-11-07T11:40:22.420Z,95.98
2017-11-07T11:41:22.676Z,96.08
2017-11-07T11:42:22.419Z,96.17
2017-11-07T11:43:22.389Z,95.79
2017-11-07T11:44:22.416Z,96.55
2017-11-07T11:45:22.369Z,97.22
2017-11-07T11:46:22.372Z,96.41
2017-11-07T11:47:22.364Z,96.41
2017-11-07T11:48:22.031Z,96.98
2017-11-07T11:49:22.347Z,96.12
2017-11-07T11:50:22.333Z,95.46
2017-11-07T11:51:22.005Z,96.03
2017-11-07T11:52:22.318Z,95.75
2017-11-07T11:53:22.334Z,95.46
2017-11-07T11:54:22.332Z,95.65
2017-11-07T11:55:21.975Z,96.46
2017-11-07T11:56:21.962Z,97.31
2017-11-07T11:57:22.271Z,96.08
2017-11-07T11:58:21.945Z,96.36
2017-11-07T11:59:21.953Z,97.03
2017-11-07T12:00:21.928Z,95.89
2017-11-07T12:01:21.937Z,97.03
2017-11-07T12:02:22.236Z,97.03
2017-11-07T12:03:21.900Z,97.03
2017-11-07T12:04:22.223Z,96.12
2017-11-07T12:05:21.888Z,96.98
2017-11-07T12:06:21.880Z,97.22
2017-11-07T12:07:21.878Z,96.51
2017-11-07T12:08:21.869Z,96.89
2017-11-07T12:09:22.179Z,96.41
2017-11-07T12:10:21.846Z,96.6
2017-11-07T12:11:22.168Z,96.41
2017-11-07T12:12:22.412Z,96.8
2017-11-07T12:13:22.158Z,96.7
2017-11-07T12:14:22.149Z,96.22
2017-11-07T12:15:22.135Z,95.75
2017-11-07T12:16:22.125Z,96.32
2017-11-07T12:17:22.114Z,96.22
2017-11-07T12:18:22.105Z,96.89
2017-11-07T12:19:22.108Z,96.89
2017-11-07T12:20:21.768Z,96.22
2017-11-07T12:21:22.109Z,95.46
2017-11-07T12:22:22.074Z,95.84
2017-11-07T12:23:22.101Z,95.36
2017-11-07T12:24:22.060Z,96.98
2017-11-07T12:25:22.093Z,96.7
2017-11-07T12:26:22.069Z,97.08
2017-11-07T12:27:22.035Z,95.08
2017-11-07T12:28:22.023Z,95.75
2017-11-07T12:29:22.033Z,96.98
2017-11-07T12:30:22.047Z,95.17
2017-11-07T12:31:22.000Z,95.56
2017-11-07T12:32:22.004Z,96.98
2017-11-07T12:33:22.000Z,96.03
2017-11-07T12:34:21.977Z,96.8
2017-11-07T12:35:21.984Z,97.17
2017-11-07T12:36:21.977Z,96.89
2017-11-07T12:37:21.978Z,96.32
2017-11-07T12:38:21.619Z,96.32
2017-11-07T12:39:21.935Z,96.32
2017-11-07T12:40:21.604Z,95.65
2017-11-07T12:41:21.920Z,96.6
2017-11-07T12:42:21.916Z,96.03
2017-11-07T12:43:21.912Z,95.03
2017-11-07T12:44:21.583Z,95.22
2017-11-07T12:45:21.888Z,94.74
2017-11-07T12:46:21.874Z,94.74
2017-11-07T12:47:21.871Z,94.84
2017-11-07T12:48:21.868Z,95.98
2017-11-07T12:49:21.850Z,96.27
2017-11-07T12:50:21.843Z,96.27
2017-11-07T12:51:21.831Z,95.7
2017-11-07T12:52:21.848Z,96.65
2017-11-07T12:53:21.507Z,96.65